sensor_id;sensor_type;location;lat;lon;timestamp;P1;durP1;ratioP1;P2;durP2;ratioP2
25435;SDS011;13363;52.772;-3.890;2023-02-28T00:00:15;4.63;;;4.33;;
25435;SDS011;13363;52.772;-3.890;2023-02-28T00:02:42;5.43;;;4.30;;
25435;SDS011;13363;52.772;-3.890;2023-02-28T00:05:10;4.50;;;4.20;;
25435;SDS011;13363;52.772;-3.890;2023-02-28T00:07:37;4.50;;;4.20;;
25435;SDS011;13363;52.772;-3.890;2023-02-28T00:10:04;4.03;;;3.73;;
25435;SDS011;13363;52.772;-3.890;2023-02-28T00:12:32;4.53;;;4.23;;
25435;SDS011;13363;52.772;-3.890;2023-02-28T00:14:59;4.43;;;4.07;;
25435;SDS011;13363;52.772;-3.890;2023-02-28T00:17:25;4.67;;;4.37;;
25435;SDS011;13363;52.772;-3.890;2023-02-28T00:19:51;4.10;;;3.80;;
25435;SDS011;13363;52.772;-3.890;2023-02-28T00:22:18;4.33;;;4.13;;
25435;SDS011;13363;52.772;-3.890;2023-02-28T00:24:45;3.87;;;3.57;;
25435;SDS011;13363;52.772;-3.890;2023-02-28T00:27:12;5.20;;;4.80;;
25435;SDS011;13363;52.772;-3.890;2023-02-28T00:29:38;4.97;;;4.60;;
25435;SDS011;13363;52.772;-3.890;2023-02-28T00:32:05;4.57;;;4.30;;
25435;SDS011;13363;52.772;-3.890;2023-02-28T00:34:32;3.90;;;3.70;;
25435;SDS011;13363;52.772;-3.890;2023-02-28T00:37:06;5.00;;;4.60;;
25435;SDS011;13363;52.772;-3.890;2023-02-28T00:39:34;3.93;;;3.73;;
25435;SDS011;13363;52.772;-3.890;2023-02-28T00:42:01;4.60;;;4.20;;
25435;SDS011;13363;52.772;-3.890;2023-02-28T00:44:27;5.03;;;4.03;;
25435;SDS011;13363;52.772;-3.890;2023-02-28T00:46:54;4.00;;;3.80;;
25435;SDS011;13363;52.772;-3.890;2023-02-28T00:49:20;3.53;;;3.33;;
25435;SDS011;13363;52.772;-3.890;2023-02-28T00:51:46;4.23;;;3.87;;
25435;SDS011;13363;52.772;-3.890;2023-02-28T00:54:12;3.80;;;3.57;;
25435;SDS011;13363;52.772;-3.890;2023-02-28T00:56:38;3.87;;;3.57;;
25435;SDS011;13363;52.772;-3.890;2023-02-28T00:59:04;4.00;;;3.70;;
25435;SDS011;13363;52.772;-3.890;2023-02-28T01:01:30;4.13;;;3.93;;
25435;SDS011;13363;52.772;-3.890;2023-02-28T01:03:56;3.77;;;3.47;;
25435;SDS011;13363;52.772;-3.890;2023-02-28T01:06:21;4.40;;;4.10;;
25435;SDS011;13363;52.772;-3.890;2023-02-28T01:08:48;4.43;;;4.13;;
25435;SDS011;13363;52.772;-3.890;2023-02-28T01:11:16;4.40;;;4.10;;
25435;SDS011;13363;52.772;-3.890;2023-02-28T01:13:43;3.97;;;3.60;;
25435;SDS011;13363;52.772;-3.890;2023-02-28T01:16:10;4.13;;;3.93;;
25435;SDS011;13363;52.772;-3.890;2023-02-28T01:18:36;6.20;;;4.20;;
25435;SDS011;13363;52.772;-3.890;2023-02-28T01:21:04;4.50;;;4.30;;
25435;SDS011;13363;52.772;-3.890;2023-02-28T01:23:34;4.70;;;4.37;;
25435;SDS011;13363;52.772;-3.890;2023-02-28T01:26:19;4.10;;;3.80;;
25435;SDS011;13363;52.772;-3.890;2023-02-28T01:28:46;4.43;;;4.10;;
25435;SDS011;13363;52.772;-3.890;2023-02-28T01:31:13;4.10;;;3.90;;
25435;SDS011;13363;52.772;-3.890;2023-02-28T01:33:40;4.13;;;3.83;;
25435;SDS011;13363;52.772;-3.890;2023-02-28T01:36:07;3.77;;;3.47;;
25435;SDS011;13363;52.772;-3.890;2023-02-28T01:38:37;3.93;;;3.70;;
25435;SDS011;13363;52.772;-3.890;2023-02-28T01:41:03;3.87;;;3.67;;
25435;SDS011;13363;52.772;-3.890;2023-02-28T01:43:30;3.93;;;3.63;;
25435;SDS011;13363;52.772;-3.890;2023-02-28T01:46:16;4.30;;;4.00;;
25435;SDS011;13363;52.772;-3.890;2023-02-28T01:48:44;4.30;;;4.00;;
25435;SDS011;13363;52.772;-3.890;2023-02-28T01:51:28;4.50;;;4.20;;
25435;SDS011;13363;52.772;-3.890;2023-02-28T01:54:02;3.90;;;3.70;;
25435;SDS011;13363;52.772;-3.890;2023-02-28T01:56:38;4.00;;;3.70;;
25435;SDS011;13363;52.772;-3.890;2023-02-28T01:59:10;5.60;;;5.20;;
25435;SDS011;13363;52.772;-3.890;2023-02-28T02:01:39;5.93;;;5.50;;
25435;SDS011;13363;52.772;-3.890;2023-02-28T02:04:05;5.77;;;5.27;;
25435;SDS011;13363;52.772;-3.890;2023-02-28T02:06:34;5.87;;;5.47;;
25435;SDS011;13363;52.772;-3.890;2023-02-28T02:09:03;5.03;;;4.73;;
25435;SDS011;13363;52.772;-3.890;2023-02-28T02:11:29;5.07;;;4.67;;
25435;SDS011;13363;52.772;-3.890;2023-02-28T02:14:03;5.20;;;4.80;;
25435;SDS011;13363;52.772;-3.890;2023-02-28T02:17:04;5.07;;;4.57;;
25435;SDS011;13363;52.772;-3.890;2023-02-28T02:25:22;4.57;;;4.30;;
25435;SDS011;13363;52.772;-3.890;2023-02-28T02:31:32;4.93;;;4.63;;
25435;SDS011;13363;52.772;-3.890;2023-02-28T02:42:45;3.90;;;3.70;;
25435;SDS011;13363;52.772;-3.890;2023-02-28T02:45:30;4.63;;;4.30;;
25435;SDS011;13363;52.772;-3.890;2023-02-28T02:48:08;4.90;;;4.60;;
25435;SDS011;13363;52.772;-3.890;2023-02-28T02:50:39;4.47;;;4.03;;
25435;SDS011;13363;52.772;-3.890;2023-02-28T02:53:21;4.40;;;4.10;;
25435;SDS011;13363;52.772;-3.890;2023-02-28T02:55:51;4.17;;;3.87;;
25435;SDS011;13363;52.772;-3.890;2023-02-28T02:58:20;5.13;;;4.73;;
25435;SDS011;13363;52.772;-3.890;2023-02-28T03:00:51;5.13;;;4.83;;
25435;SDS011;13363;52.772;-3.890;2023-02-28T03:03:21;4.27;;;3.97;;
25435;SDS011;13363;52.772;-3.890;2023-02-28T03:05:54;4.43;;;4.13;;
25435;SDS011;13363;52.772;-3.890;2023-02-28T03:08:20;4.80;;;4.50;;
25435;SDS011;13363;52.772;-3.890;2023-02-28T03:10:48;3.70;;;3.50;;
25435;SDS011;13363;52.772;-3.890;2023-02-28T03:18:36;3.93;;;3.73;;
25435;SDS011;13363;52.772;-3.890;2023-02-28T03:24:09;4.03;;;3.77;;
25435;SDS011;13363;52.772;-3.890;2023-02-28T03:27:03;9.33;;;3.83;;
25435;SDS011;13363;52.772;-3.890;2023-02-28T03:29:39;4.30;;;4.00;;
25435;SDS011;13363;52.772;-3.890;2023-02-28T03:35:13;3.53;;;3.33;;
25435;SDS011;13363;52.772;-3.890;2023-02-28T03:37:47;3.90;;;3.70;;
25435;SDS011;13363;52.772;-3.890;2023-02-28T03:40:19;3.73;;;3.53;;
25435;SDS011;13363;52.772;-3.890;2023-02-28T03:42:50;3.73;;;3.50;;
25435;SDS011;13363;52.772;-3.890;2023-02-28T03:45:21;3.50;;;3.30;;
25435;SDS011;13363;52.772;-3.890;2023-02-28T03:47:57;3.70;;;3.40;;
25435;SDS011;13363;52.772;-3.890;2023-02-28T03:50:47;3.60;;;3.30;;
25435;SDS011;13363;52.772;-3.890;2023-02-28T03:53:37;3.00;;;2.77;;
25435;SDS011;13363;52.772;-3.890;2023-02-28T03:56:21;3.13;;;2.97;;
25435;SDS011;13363;52.772;-3.890;2023-02-28T04:01:47;3.30;;;3.10;;
25435;SDS011;13363;52.772;-3.890;2023-02-28T04:04:14;3.13;;;3.03;;
25435;SDS011;13363;52.772;-3.890;2023-02-28T04:06:41;3.13;;;2.93;;
25435;SDS011;13363;52.772;-3.890;2023-02-28T04:09:09;3.33;;;3.13;;
25435;SDS011;13363;52.772;-3.890;2023-02-28T04:11:38;3.37;;;3.10;;
25435;SDS011;13363;52.772;-3.890;2023-02-28T04:14:05;3.23;;;3.03;;
25435;SDS011;13363;52.772;-3.890;2023-02-28T04:16:33;3.03;;;2.83;;
25435;SDS011;13363;52.772;-3.890;2023-02-28T04:19:00;2.77;;;2.67;;
25435;SDS011;13363;52.772;-3.890;2023-02-28T04:21:29;3.13;;;2.80;;
25435;SDS011;13363;52.772;-3.890;2023-02-28T04:23:55;3.20;;;3.00;;
25435;SDS011;13363;52.772;-3.890;2023-02-28T04:26:27;3.40;;;3.20;;
25435;SDS011;13363;52.772;-3.890;2023-02-28T04:28:55;3.23;;;3.03;;
25435;SDS011;13363;52.772;-3.890;2023-02-28T04:31:21;2.90;;;2.80;;
25435;SDS011;13363;52.772;-3.890;2023-02-28T04:33:46;3.17;;;2.97;;
25435;SDS011;13363;52.772;-3.890;2023-02-28T04:36:12;3.23;;;3.03;;
25435;SDS011;13363;52.772;-3.890;2023-02-28T04:38:39;2.87;;;2.70;;
25435;SDS011;13363;52.772;-3.890;2023-02-28T04:41:05;2.93;;;2.73;;
25435;SDS011;13363;52.772;-3.890;2023-02-28T04:43:31;2.60;;;2.50;;
25435;SDS011;13363;52.772;-3.890;2023-02-28T04:45:58;2.90;;;2.70;;
25435;SDS011;13363;52.772;-3.890;2023-02-28T04:48:30;2.53;;;2.43;;
25435;SDS011;13363;52.772;-3.890;2023-02-28T04:51:01;3.10;;;2.90;;
25435;SDS011;13363;52.772;-3.890;2023-02-28T04:53:28;2.57;;;2.47;;
25435;SDS011;13363;52.772;-3.890;2023-02-28T04:55:54;3.17;;;3.03;;
25435;SDS011;13363;52.772;-3.890;2023-02-28T04:58:21;2.73;;;2.63;;
25435;SDS011;13363;52.772;-3.890;2023-02-28T05:00:52;2.87;;;2.67;;
25435;SDS011;13363;52.772;-3.890;2023-02-28T05:03:19;3.13;;;2.93;;
25435;SDS011;13363;52.772;-3.890;2023-02-28T05:05:47;2.47;;;2.37;;
25435;SDS011;13363;52.772;-3.890;2023-02-28T05:08:13;2.90;;;2.70;;
25435;SDS011;13363;52.772;-3.890;2023-02-28T05:10:38;2.57;;;2.47;;
25435;SDS011;13363;52.772;-3.890;2023-02-28T05:13:04;2.50;;;2.37;;
25435;SDS011;13363;52.772;-3.890;2023-02-28T05:15:30;2.60;;;2.50;;
25435;SDS011;13363;52.772;-3.890;2023-02-28T05:17:56;2.43;;;2.33;;
25435;SDS011;13363;52.772;-3.890;2023-02-28T05:20:22;2.33;;;2.23;;
25435;SDS011;13363;52.772;-3.890;2023-02-28T05:22:49;2.03;;;1.93;;
25435;SDS011;13363;52.772;-3.890;2023-02-28T05:25:19;2.10;;;2.00;;
25435;SDS011;13363;52.772;-3.890;2023-02-28T05:27:47;1.87;;;1.87;;
25435;SDS011;13363;52.772;-3.890;2023-02-28T05:30:13;2.40;;;2.23;;
25435;SDS011;13363;52.772;-3.890;2023-02-28T05:32:40;2.37;;;2.00;;
25435;SDS011;13363;52.772;-3.890;2023-02-28T05:35:08;1.97;;;1.73;;
25435;SDS011;13363;52.772;-3.890;2023-02-28T05:37:37;1.63;;;1.60;;
25435;SDS011;13363;52.772;-3.890;2023-02-28T05:40:04;1.83;;;1.73;;
25435;SDS011;13363;52.772;-3.890;2023-02-28T05:42:32;2.50;;;1.80;;
25435;SDS011;13363;52.772;-3.890;2023-02-28T05:44:58;1.87;;;1.77;;
25435;SDS011;13363;52.772;-3.890;2023-02-28T05:47:24;5.13;;;2.00;;
25435;SDS011;13363;52.772;-3.890;2023-02-28T05:49:49;1.40;;;1.40;;
25435;SDS011;13363;52.772;-3.890;2023-02-28T05:52:15;1.80;;;1.70;;
25435;SDS011;13363;52.772;-3.890;2023-02-28T05:54:41;2.10;;;1.50;;
25435;SDS011;13363;52.772;-3.890;2023-02-28T05:57:07;1.30;;;1.30;;
25435;SDS011;13363;52.772;-3.890;2023-02-28T05:59:33;1.63;;;1.53;;
25435;SDS011;13363;52.772;-3.890;2023-02-28T06:02:02;1.37;;;1.37;;
25435;SDS011;13363;52.772;-3.890;2023-02-28T06:04:28;1.30;;;1.20;;
25435;SDS011;13363;52.772;-3.890;2023-02-28T06:06:53;2.37;;;1.40;;
25435;SDS011;13363;52.772;-3.890;2023-02-28T06:09:19;1.47;;;1.47;;
25435;SDS011;13363;52.772;-3.890;2023-02-28T06:11:45;1.50;;;1.40;;
25435;SDS011;13363;52.772;-3.890;2023-02-28T06:14:15;1.43;;;1.43;;
25435;SDS011;13363;52.772;-3.890;2023-02-28T06:16:44;1.47;;;1.37;;
25435;SDS011;13363;52.772;-3.890;2023-02-28T06:19:10;1.17;;;1.17;;
25435;SDS011;13363;52.772;-3.890;2023-02-28T06:21:36;1.70;;;1.60;;
25435;SDS011;13363;52.772;-3.890;2023-02-28T06:24:02;1.70;;;1.60;;
25435;SDS011;13363;52.772;-3.890;2023-02-28T06:26:29;1.50;;;1.40;;
25435;SDS011;13363;52.772;-3.890;2023-02-28T06:28:55;2.30;;;1.77;;
25435;SDS011;13363;52.772;-3.890;2023-02-28T06:31:21;1.27;;;1.20;;
25435;SDS011;13363;52.772;-3.890;2023-02-28T06:33:49;1.43;;;1.33;;
25435;SDS011;13363;52.772;-3.890;2023-02-28T06:36:15;1.07;;;1.07;;
25435;SDS011;13363;52.772;-3.890;2023-02-28T06:38:42;1.47;;;1.40;;
25435;SDS011;13363;52.772;-3.890;2023-02-28T06:41:08;1.23;;;1.23;;
25435;SDS011;13363;52.772;-3.890;2023-02-28T06:43:36;1.30;;;1.20;;
25435;SDS011;13363;52.772;-3.890;2023-02-28T06:46:04;1.20;;;1.20;;
25435;SDS011;13363;52.772;-3.890;2023-02-28T06:48:32;1.20;;;1.20;;
25435;SDS011;13363;52.772;-3.890;2023-02-28T06:51:02;1.37;;;1.00;;
25435;SDS011;13363;52.772;-3.890;2023-02-28T06:53:35;1.13;;;1.13;;
25435;SDS011;13363;52.772;-3.890;2023-02-28T06:56:05;1.33;;;1.30;;
25435;SDS011;13363;52.772;-3.890;2023-02-28T06:58:33;1.20;;;1.20;;
25435;SDS011;13363;52.772;-3.890;2023-02-28T07:00:59;1.40;;;1.40;;
25435;SDS011;13363;52.772;-3.890;2023-02-28T07:03:25;1.20;;;1.20;;
25435;SDS011;13363;52.772;-3.890;2023-02-28T07:05:51;1.17;;;1.17;;
25435;SDS011;13363;52.772;-3.890;2023-02-28T07:08:17;2.47;;;1.20;;
25435;SDS011;13363;52.772;-3.890;2023-02-28T07:10:43;0.87;;;0.87;;
25435;SDS011;13363;52.772;-3.890;2023-02-28T07:13:09;1.17;;;1.13;;
25435;SDS011;13363;52.772;-3.890;2023-02-28T07:15:36;1.00;;;1.00;;
25435;SDS011;13363;52.772;-3.890;2023-02-28T07:18:02;1.00;;;1.00;;
25435;SDS011;13363;52.772;-3.890;2023-02-28T07:20:28;1.20;;;1.20;;
25435;SDS011;13363;52.772;-3.890;2023-02-28T07:22:54;1.10;;;1.10;;
25435;SDS011;13363;52.772;-3.890;2023-02-28T07:25:24;0.90;;;0.90;;
25435;SDS011;13363;52.772;-3.890;2023-02-28T07:27:51;1.20;;;1.20;;
25435;SDS011;13363;52.772;-3.890;2023-02-28T07:30:18;1.20;;;1.00;;
25435;SDS011;13363;52.772;-3.890;2023-02-28T07:32:45;1.00;;;1.00;;
25435;SDS011;13363;52.772;-3.890;2023-02-28T07:35:11;0.93;;;0.93;;
25435;SDS011;13363;52.772;-3.890;2023-02-28T07:37:37;0.90;;;0.90;;
25435;SDS011;13363;52.772;-3.890;2023-02-28T07:40:04;1.20;;;1.10;;
25435;SDS011;13363;52.772;-3.890;2023-02-28T07:42:33;0.73;;;0.73;;
25435;SDS011;13363;52.772;-3.890;2023-02-28T07:45:02;1.67;;;0.80;;
25435;SDS011;13363;52.772;-3.890;2023-02-28T07:47:29;1.00;;;1.00;;
25435;SDS011;13363;52.772;-3.890;2023-02-28T07:49:56;1.20;;;0.97;;
25435;SDS011;13363;52.772;-3.890;2023-02-28T07:52:22;0.90;;;0.90;;
25435;SDS011;13363;52.772;-3.890;2023-02-28T07:54:51;1.00;;;1.00;;
25435;SDS011;13363;52.772;-3.890;2023-02-28T07:57:17;1.30;;;0.73;;
25435;SDS011;13363;52.772;-3.890;2023-02-28T07:59:43;0.87;;;0.87;;
25435;SDS011;13363;52.772;-3.890;2023-02-28T08:02:13;0.60;;;0.60;;
25435;SDS011;13363;52.772;-3.890;2023-02-28T08:04:40;0.63;;;0.63;;
25435;SDS011;13363;52.772;-3.890;2023-02-28T08:07:06;0.80;;;0.80;;
25435;SDS011;13363;52.772;-3.890;2023-02-28T08:09:32;0.80;;;0.80;;
25435;SDS011;13363;52.772;-3.890;2023-02-28T08:11:59;2.50;;;0.93;;
25435;SDS011;13363;52.772;-3.890;2023-02-28T08:14:25;0.70;;;0.70;;
25435;SDS011;13363;52.772;-3.890;2023-02-28T08:16:51;0.80;;;0.80;;
25435;SDS011;13363;52.772;-3.890;2023-02-28T08:19:16;0.80;;;0.80;;
25435;SDS011;13363;52.772;-3.890;2023-02-28T08:21:42;1.17;;;0.80;;
25435;SDS011;13363;52.772;-3.890;2023-02-28T08:24:08;0.90;;;0.90;;
25435;SDS011;13363;52.772;-3.890;2023-02-28T08:26:34;0.80;;;0.80;;
25435;SDS011;13363;52.772;-3.890;2023-02-28T08:29:00;1.60;;;0.80;;
25435;SDS011;13363;52.772;-3.890;2023-02-28T08:31:25;1.60;;;0.70;;
25435;SDS011;13363;52.772;-3.890;2023-02-28T08:33:51;1.60;;;0.70;;
25435;SDS011;13363;52.772;-3.890;2023-02-28T08:36:18;2.40;;;0.90;;
25435;SDS011;13363;52.772;-3.890;2023-02-28T08:38:44;0.83;;;0.83;;
25435;SDS011;13363;52.772;-3.890;2023-02-28T08:41:11;1.00;;;0.90;;
25435;SDS011;13363;52.772;-3.890;2023-02-28T08:43:38;0.80;;;0.80;;
25435;SDS011;13363;52.772;-3.890;2023-02-28T08:46:05;0.90;;;0.90;;
25435;SDS011;13363;52.772;-3.890;2023-02-28T08:48:32;0.60;;;0.60;;
25435;SDS011;13363;52.772;-3.890;2023-02-28T08:51:00;0.50;;;0.50;;
25435;SDS011;13363;52.772;-3.890;2023-02-28T08:53:27;1.90;;;0.63;;
25435;SDS011;13363;52.772;-3.890;2023-02-28T08:55:57;1.30;;;0.53;;
25435;SDS011;13363;52.772;-3.890;2023-02-28T08:58:28;0.50;;;0.50;;
25435;SDS011;13363;52.772;-3.890;2023-02-28T09:00:54;1.40;;;0.80;;
25435;SDS011;13363;52.772;-3.890;2023-02-28T09:03:20;0.50;;;0.50;;
25435;SDS011;13363;52.772;-3.890;2023-02-28T09:05:53;0.40;;;0.40;;
25435;SDS011;13363;52.772;-3.890;2023-02-28T09:08:24;0.50;;;0.50;;
25435;SDS011;13363;52.772;-3.890;2023-02-28T09:10:53;0.70;;;0.70;;
25435;SDS011;13363;52.772;-3.890;2023-02-28T09:13:19;0.87;;;0.73;;
25435;SDS011;13363;52.772;-3.890;2023-02-28T09:15:45;0.60;;;0.60;;
25435;SDS011;13363;52.772;-3.890;2023-02-28T09:18:11;0.50;;;0.50;;
25435;SDS011;13363;52.772;-3.890;2023-02-28T09:20:38;0.87;;;0.33;;
25435;SDS011;13363;52.772;-3.890;2023-02-28T09:23:05;0.37;;;0.37;;
25435;SDS011;13363;52.772;-3.890;2023-02-28T09:25:31;0.50;;;0.50;;
25435;SDS011;13363;52.772;-3.890;2023-02-28T09:27:57;0.23;;;0.23;;
25435;SDS011;13363;52.772;-3.890;2023-02-28T09:30:23;1.60;;;0.37;;
25435;SDS011;13363;52.772;-3.890;2023-02-28T09:32:49;0.30;;;0.30;;
25435;SDS011;13363;52.772;-3.890;2023-02-28T09:35:25;0.20;;;0.20;;
25435;SDS011;13363;52.772;-3.890;2023-02-28T09:37:52;0.30;;;0.30;;
25435;SDS011;13363;52.772;-3.890;2023-02-28T09:40:20;0.20;;;0.20;;
25435;SDS011;13363;52.772;-3.890;2023-02-28T09:42:49;0.20;;;0.20;;
25435;SDS011;13363;52.772;-3.890;2023-02-28T09:47:52;0.10;;;0.10;;
25435;SDS011;13363;52.772;-3.890;2023-02-28T09:53:13;0.30;;;0.30;;
25435;SDS011;13363;52.772;-3.890;2023-02-28T09:55:50;0.20;;;0.20;;
25435;SDS011;13363;52.772;-3.890;2023-02-28T09:58:23;0.20;;;0.20;;
25435;SDS011;13363;52.772;-3.890;2023-02-28T10:01:18;0.20;;;0.20;;
25435;SDS011;13363;52.772;-3.890;2023-02-28T10:06:20;0.17;;;0.17;;
25435;SDS011;13363;52.772;-3.890;2023-02-28T10:08:56;0.30;;;0.30;;
25435;SDS011;13363;52.772;-3.890;2023-02-28T10:11:28;0.20;;;0.20;;
25435;SDS011;13363;52.772;-3.890;2023-02-28T10:14:01;1.53;;;0.20;;
25435;SDS011;13363;52.772;-3.890;2023-02-28T10:19:15;0.10;;;0.10;;
25435;SDS011;13363;52.772;-3.890;2023-02-28T10:21:57;0.93;;;0.40;;
25435;SDS011;13363;52.772;-3.890;2023-02-28T10:24:34;0.30;;;0.30;;
25435;SDS011;13363;52.772;-3.890;2023-02-28T10:27:15;0.20;;;0.20;;
25435;SDS011;13363;52.772;-3.890;2023-02-28T10:29:44;0.20;;;0.20;;
25435;SDS011;13363;52.772;-3.890;2023-02-28T10:32:16;0.37;;;0.37;;
25435;SDS011;13363;52.772;-3.890;2023-02-28T10:34:43;0.23;;;0.23;;
25435;SDS011;13363;52.772;-3.890;2023-02-28T10:37:10;0.20;;;0.20;;
25435;SDS011;13363;52.772;-3.890;2023-02-28T10:39:45;0.17;;;0.17;;
25435;SDS011;13363;52.772;-3.890;2023-02-28T10:42:25;0.10;;;0.10;;
25435;SDS011;13363;52.772;-3.890;2023-02-28T10:45:10;0.40;;;0.30;;
25435;SDS011;13363;52.772;-3.890;2023-02-28T10:47:59;0.20;;;0.20;;
25435;SDS011;13363;52.772;-3.890;2023-02-28T10:53:14;0.20;;;0.20;;
25435;SDS011;13363;52.772;-3.890;2023-02-28T10:58:46;0.27;;;0.27;;
25435;SDS011;13363;52.772;-3.890;2023-02-28T11:03:56;0.20;;;0.20;;
25435;SDS011;13363;52.772;-3.890;2023-02-28T11:06:26;0.17;;;0.10;;
25435;SDS011;13363;52.772;-3.890;2023-02-28T11:08:56;0.10;;;0.10;;
25435;SDS011;13363;52.772;-3.890;2023-02-28T11:11:26;0.17;;;0.17;;
25435;SDS011;13363;52.772;-3.890;2023-02-28T11:13:57;0.20;;;0.20;;
25435;SDS011;13363;52.772;-3.890;2023-02-28T11:16:38;0.67;;;0.50;;
25435;SDS011;13363;52.772;-3.890;2023-02-28T11:19:06;0.10;;;0.10;;
25435;SDS011;13363;52.772;-3.890;2023-02-28T11:21:45;0.20;;;0.20;;
25435;SDS011;13363;52.772;-3.890;2023-02-28T11:26:55;0.10;;;0.10;;
25435;SDS011;13363;52.772;-3.890;2023-02-28T11:34:33;0.10;;;0.10;;
25435;SDS011;13363;52.772;-3.890;2023-02-28T11:37:01;0.20;;;0.20;;
25435;SDS011;13363;52.772;-3.890;2023-02-28T11:39:30;0.10;;;0.10;;
25435;SDS011;13363;52.772;-3.890;2023-02-28T11:47:38;0.20;;;0.20;;
25435;SDS011;13363;52.772;-3.890;2023-02-28T11:50:16;0.20;;;0.20;;
25435;SDS011;13363;52.772;-3.890;2023-02-28T11:52:48;0.57;;;0.57;;
25435;SDS011;13363;52.772;-3.890;2023-02-28T11:55:21;0.20;;;0.20;;
25435;SDS011;13363;52.772;-3.890;2023-02-28T12:06:29;0.10;;;0.10;;
25435;SDS011;13363;52.772;-3.890;2023-02-28T12:09:00;0.20;;;0.20;;
25435;SDS011;13363;52.772;-3.890;2023-02-28T12:11:52;0.10;;;0.10;;
25435;SDS011;13363;52.772;-3.890;2023-02-28T12:28:34;2.30;;;0.50;;
25435;SDS011;13363;52.772;-3.890;2023-02-28T12:31:13;0.40;;;0.40;;
25435;SDS011;13363;52.772;-3.890;2023-02-28T12:34:07;0.43;;;0.43;;
25435;SDS011;13363;52.772;-3.890;2023-02-28T12:36:37;0.20;;;0.20;;
25435;SDS011;13363;52.772;-3.890;2023-02-28T12:42:01;0.43;;;0.10;;
25435;SDS011;13363;52.772;-3.890;2023-02-28T12:47:28;0.10;;;0.10;;
25435;SDS011;13363;52.772;-3.890;2023-02-28T12:49:56;0.20;;;0.20;;
25435;SDS011;13363;52.772;-3.890;2023-02-28T12:52:51;0.80;;;0.10;;
25435;SDS011;13363;52.772;-3.890;2023-02-28T12:55:31;0.20;;;0.20;;
25435;SDS011;13363;52.772;-3.890;2023-02-28T13:04:05;0.20;;;0.20;;
25435;SDS011;13363;52.772;-3.890;2023-02-28T13:09:29;0.10;;;0.10;;
25435;SDS011;13363;52.772;-3.890;2023-02-28T13:11:55;0.40;;;0.10;;
25435;SDS011;13363;52.772;-3.890;2023-02-28T13:19:35;0.30;;;0.30;;
25435;SDS011;13363;52.772;-3.890;2023-02-28T13:22:37;0.20;;;0.20;;
25435;SDS011;13363;52.772;-3.890;2023-02-28T13:25:49;0.30;;;0.30;;
25435;SDS011;13363;52.772;-3.890;2023-02-28T13:27:54;0.57;;;0.23;;
25435;SDS011;13363;52.772;-3.890;2023-02-28T13:33:31;0.17;;;0.17;;
25435;SDS011;13363;52.772;-3.890;2023-02-28T13:36:08;0.10;;;0.10;;
25435;SDS011;13363;52.772;-3.890;2023-02-28T13:38:43;0.10;;;0.10;;
25435;SDS011;13363;52.772;-3.890;2023-02-28T13:44:04;8.13;;;0.40;;
25435;SDS011;13363;52.772;-3.890;2023-02-28T13:46:32;1.23;;;0.20;;
25435;SDS011;13363;52.772;-3.890;2023-02-28T13:52:02;0.40;;;0.40;;
25435;SDS011;13363;52.772;-3.890;2023-02-28T14:00:21;0.87;;;0.50;;
25435;SDS011;13363;52.772;-3.890;2023-02-28T14:05:38;0.50;;;0.40;;
25435;SDS011;13363;52.772;-3.890;2023-02-28T14:08:12;0.47;;;0.27;;
25435;SDS011;13363;52.772;-3.890;2023-02-28T14:10:49;1.70;;;0.20;;
25435;SDS011;13363;52.772;-3.890;2023-02-28T14:13:40;0.30;;;0.30;;
25435;SDS011;13363;52.772;-3.890;2023-02-28T14:16:15;0.30;;;0.30;;
25435;SDS011;13363;52.772;-3.890;2023-02-28T14:18:55;0.23;;;0.23;;
25435;SDS011;13363;52.772;-3.890;2023-02-28T14:21:25;0.53;;;0.40;;
25435;SDS011;13363;52.772;-3.890;2023-02-28T14:32:15;0.27;;;0.13;;
25435;SDS011;13363;52.772;-3.890;2023-02-28T14:37:39;0.70;;;0.40;;
25435;SDS011;13363;52.772;-3.890;2023-02-28T14:40:17;0.40;;;0.40;;
25435;SDS011;13363;52.772;-3.890;2023-02-28T14:42:59;0.77;;;0.30;;
25435;SDS011;13363;52.772;-3.890;2023-02-28T14:45:30;0.73;;;0.33;;
25435;SDS011;13363;52.772;-3.890;2023-02-28T14:48:01;1.23;;;0.30;;
25435;SDS011;13363;52.772;-3.890;2023-02-28T14:50:35;5.27;;;0.50;;
25435;SDS011;13363;52.772;-3.890;2023-02-28T14:53:02;0.40;;;0.40;;
25435;SDS011;13363;52.772;-3.890;2023-02-28T14:55:32;0.57;;;0.30;;
25435;SDS011;13363;52.772;-3.890;2023-02-28T14:58:01;0.30;;;0.30;;
25435;SDS011;13363;52.772;-3.890;2023-02-28T15:00:32;0.33;;;0.33;;
25435;SDS011;13363;52.772;-3.890;2023-02-28T15:03:17;0.40;;;0.40;;
25435;SDS011;13363;52.772;-3.890;2023-02-28T15:05:47;1.40;;;0.53;;
25435;SDS011;13363;52.772;-3.890;2023-02-28T15:08:27;0.23;;;0.23;;
25435;SDS011;13363;52.772;-3.890;2023-02-28T15:13:20;0.77;;;0.53;;
25435;SDS011;13363;52.772;-3.890;2023-02-28T15:15:57;0.70;;;0.67;;
25435;SDS011;13363;52.772;-3.890;2023-02-28T15:21:52;0.57;;;0.50;;
25435;SDS011;13363;52.772;-3.890;2023-02-28T15:26:32;0.40;;;0.40;;
25435;SDS011;13363;52.772;-3.890;2023-02-28T15:29:01;0.50;;;0.50;;
25435;SDS011;13363;52.772;-3.890;2023-02-28T15:31:43;1.70;;;0.63;;
25435;SDS011;13363;52.772;-3.890;2023-02-28T15:37:24;0.80;;;0.80;;
25435;SDS011;13363;52.772;-3.890;2023-02-28T15:39:52;0.50;;;0.50;;
25435;SDS011;13363;52.772;-3.890;2023-02-28T15:42:20;1.80;;;0.90;;
25435;SDS011;13363;52.772;-3.890;2023-02-28T15:44:47;2.23;;;0.97;;
25435;SDS011;13363;52.772;-3.890;2023-02-28T15:47:15;0.70;;;0.70;;
25435;SDS011;13363;52.772;-3.890;2023-02-28T15:52:21;1.33;;;0.87;;
25435;SDS011;13363;52.772;-3.890;2023-02-28T15:54:59;0.70;;;0.70;;
25435;SDS011;13363;52.772;-3.890;2023-02-28T15:57:38;0.83;;;0.83;;
25435;SDS011;13363;52.772;-3.890;2023-02-28T16:00:05;0.80;;;0.80;;
25435;SDS011;13363;52.772;-3.890;2023-02-28T16:02:40;1.13;;;0.70;;
25435;SDS011;13363;52.772;-3.890;2023-02-28T16:07:35;0.93;;;0.80;;
25435;SDS011;13363;52.772;-3.890;2023-02-28T16:10:03;2.07;;;0.90;;
25435;SDS011;13363;52.772;-3.890;2023-02-28T16:12:30;0.60;;;0.60;;
25435;SDS011;13363;52.772;-3.890;2023-02-28T16:15:00;1.33;;;0.90;;
25435;SDS011;13363;52.772;-3.890;2023-02-28T16:17:33;0.70;;;0.57;;
25435;SDS011;13363;52.772;-3.890;2023-02-28T16:20:05;0.67;;;0.67;;
25435;SDS011;13363;52.772;-3.890;2023-02-28T16:22:42;0.70;;;0.70;;
25435;SDS011;13363;52.772;-3.890;2023-02-28T16:25:16;0.87;;;0.80;;
25435;SDS011;13363;52.772;-3.890;2023-02-28T16:27:50;0.77;;;0.77;;
25435;SDS011;13363;52.772;-3.890;2023-02-28T16:30:23;0.73;;;0.73;;
25435;SDS011;13363;52.772;-3.890;2023-02-28T16:32:52;3.10;;;0.80;;
25435;SDS011;13363;52.772;-3.890;2023-02-28T16:35:21;0.73;;;0.73;;
25435;SDS011;13363;52.772;-3.890;2023-02-28T16:37:51;1.00;;;1.00;;
25435;SDS011;13363;52.772;-3.890;2023-02-28T16:40:21;1.03;;;0.70;;
25435;SDS011;13363;52.772;-3.890;2023-02-28T16:42:52;1.10;;;0.50;;
25435;SDS011;13363;52.772;-3.890;2023-02-28T16:45:24;0.67;;;0.67;;
25435;SDS011;13363;52.772;-3.890;2023-02-28T16:47:53;2.30;;;0.67;;
25435;SDS011;13363;52.772;-3.890;2023-02-28T16:50:22;1.57;;;0.80;;
25435;SDS011;13363;52.772;-3.890;2023-02-28T16:52:50;0.80;;;0.80;;
25435;SDS011;13363;52.772;-3.890;2023-02-28T16:55:22;1.03;;;0.93;;
25435;SDS011;13363;52.772;-3.890;2023-02-28T16:57:54;1.07;;;0.60;;
25435;SDS011;13363;52.772;-3.890;2023-02-28T17:00:23;0.70;;;0.70;;
25435;SDS011;13363;52.772;-3.890;2023-02-28T17:02:54;0.53;;;0.50;;
25435;SDS011;13363;52.772;-3.890;2023-02-28T17:05:22;1.00;;;0.70;;
25435;SDS011;13363;52.772;-3.890;2023-02-28T17:07:49;0.87;;;0.57;;
25435;SDS011;13363;52.772;-3.890;2023-02-28T17:10:25;1.90;;;0.60;;
25435;SDS011;13363;52.772;-3.890;2023-02-28T17:12:52;1.57;;;0.73;;
25435;SDS011;13363;52.772;-3.890;2023-02-28T17:15:21;0.60;;;0.57;;
25435;SDS011;13363;52.772;-3.890;2023-02-28T17:17:49;1.13;;;0.90;;
25435;SDS011;13363;52.772;-3.890;2023-02-28T17:20:18;1.93;;;0.83;;
25435;SDS011;13363;52.772;-3.890;2023-02-28T17:22:48;0.60;;;0.60;;